Time;durP1;ratioP1;P1;durP2;ratioP2;P2;SDS_P1;SDS_P2;PMS_P1;PMS_P2;Temp;Humidity;BMP_temperature;BMP_pressure;BME280_temperature;BME280_humidity;BME280_pressure;Samples;Min_cycle;Max_cycle;Signal;HPM_P1;HPM_P2
2022/03/02 00:01:22;;;;;;;9.65;6.05;;;;;;;4.89;58.91;102317.28;5093526;28;20036;-74
2022/03/02 00:03:48;;;;;;;9.82;5.03;;;;;;;4.87;59.72;102313.91;5084386;28;20033;-72
2022/03/02 00:06:15;;;;;;;14.07;5.47;;;;;;;4.82;59.37;102315.78;5083552;28;20040;-72
2022/03/02 00:08:43;;;;;;;16.13;5.03;;;;;;;4.83;59.60;102317.47;5084185;28;20055;-74
2022/03/02 00:11:11;;;;;;;8.20;4.55;;;;;;;4.77;60.16;102317.66;5079392;28;20120;-73
2022/03/02 00:13:38;;;;;;;14.18;5.85;;;;;;;4.78;60.72;102316.78;5079437;28;20296;-73
2022/03/02 00:16:04;;;;;;;8.68;5.00;;;;;;;4.77;60.03;102317.66;5058178;28;20052;-72
2022/03/02 00:18:32;;;;;;;13.57;6.10;;;;;;;4.72;60.92;102319.53;5080037;28;20040;-73
2022/03/02 00:20:59;;;;;;;8.80;4.70;;;;;;;4.72;60.71;102306.53;5073634;28;20047;-74
2022/03/02 00:23:26;;;;;;;11.82;5.05;;;;;;;4.71;62.37;102316.16;5058206;28;20055;-74
2022/03/02 00:25:54;;;;;;;10.05;5.75;;;;;;;4.71;61.93;102322.22;5077170;28;20044;-75
2022/03/02 00:28:20;;;;;;;11.10;5.30;;;;;;;4.72;61.08;102314.34;5059855;28;20078;-75
2022/03/02 00:30:47;;;;;;;10.52;5.72;;;;;;;4.78;60.53;102316.78;5075467;28;20111;-73
2022/03/02 00:33:14;;;;;;;16.58;5.15;;;;;;;4.75;60.75;102308.22;5075902;28;20048;-74
2022/03/02 00:35:43;;;;;;;9.70;4.63;;;;;;;4.72;61.77;102307.47;5065230;28;20044;-74
2022/03/02 00:38:10;;;;;;;11.45;5.20;;;;;;;4.67;61.82;102307.59;5074951;28;20044;-74
2022/03/02 00:40:38;;;;;;;8.88;4.13;;;;;;;4.69;61.68;102302.34;5079652;28;20055;-74
2022/03/02 00:43:06;;;;;;;10.10;4.95;;;;;;;4.61;62.88;102317.31;5078725;28;20064;-74
2022/03/02 00:45:32;;;;;;;10.02;5.70;;;;;;;4.57;62.02;102318.31;5078879;28;20059;-72
2022/03/02 00:47:59;;;;;;;10.05;6.55;;;;;;;4.52;61.22;102313.22;5057521;28;20044;-73
2022/03/02 00:50:26;;;;;;;10.20;4.97;;;;;;;4.43;62.44;102310.91;5081409;28;20059;-74
2022/03/02 00:52:55;;;;;;;11.52;5.75;;;;;;;4.37;63.03;102305.03;5055766;28;20040;-73
2022/03/02 00:55:22;;;;;;;9.23;4.30;;;;;;;4.30;62.06;102293.94;5075952;28;20044;-73
2022/03/02 00:57:48;;;;;;;8.25;4.50;;;;;;;4.36;60.77;102295.53;5077353;28;20044;-72
2022/03/02 01:00:15;;;;;;;9.73;4.68;;;;;;;4.29;61.00;102299.22;5079539;28;20036;-74
2022/03/02 01:02:42;;;;;;;13.65;6.18;;;;;;;4.17;61.64;102300.41;5083481;28;20047;-71
2022/03/02 01:05:09;;;;;;;16.50;5.45;;;;;;;4.10;60.83;102280.66;5082272;28;20047;-73
2022/03/02 01:07:36;;;;;;;14.95;6.32;;;;;;;3.91;62.74;102281.22;5068725;28;20041;-74
2022/03/02 01:10:06;;;;;;;11.07;4.63;;;;;;;3.77;63.06;102285.13;5059951;28;20044;-74
2022/03/02 01:12:34;;;;;;;8.43;4.72;;;;;;;3.73;63.78;102288.66;5066151;28;20040;-73
2022/03/02 01:15:00;;;;;;;9.77;5.10;;;;;;;3.72;63.01;102285.22;5057509;28;20044;-73
2022/03/02 01:17:27;;;;;;;13.55;5.47;;;;;;;3.71;63.16;102287.84;5062144;28;20059;-72
2022/03/02 01:19:54;;;;;;;9.15;4.60;;;;;;;3.55;63.24;102283.94;5074635;28;20055;-72
2022/03/02 01:22:21;;;;;;;9.43;4.28;;;;;;;3.45;63.93;102283.34;5079863;28;20048;-72
2022/03/02 01:24:47;;;;;;;7.78;4.72;;;;;;;3.47;63.05;102285.91;5071306;28;20042;-72
2022/03/02 01:27:15;;;;;;;8.35;5.45;;;;;;;3.36;63.68;102283.56;5074553;28;20053;-72
2022/03/02 01:29:42;;;;;;;9.05;4.93;;;;;;;3.26;64.55;102289.88;5075933;28;20044;-73
2022/03/02 01:32:11;;;;;;;14.43;5.85;;;;;;;3.27;64.34;102282.97;5078616;28;20094;-74
2022/03/02 01:34:38;;;;;;;8.07;4.30;;;;;;;3.17;64.33;102282.31;5072912;28;20106;-73
2022/03/02 01:37:05;;;;;;;12.18;4.95;;;;;;;3.15;65.30;102287.59;5060132;28;20794;-76
2022/03/02 01:39:32;;;;;;;6.50;4.35;;;;;;;3.03;65.92;102278.38;5080154;28;20051;-73
2022/03/02 01:41:59;;;;;;;13.23;5.80;;;;;;;2.92;65.99;102276.91;5076072;28;20048;-73
2022/03/02 01:44:28;;;;;;;9.15;4.90;;;;;;;2.85;66.59;102273.63;5070054;28;20045;-74
2022/03/02 01:46:54;;;;;;;13.55;5.97;;;;;;;2.93;65.18;102270.81;5075966;28;20461;-72
2022/03/02 01:49:21;;;;;;;9.07;4.82;;;;;;;2.88;66.24;102270.09;5083351;28;20067;-72
2022/03/02 01:51:47;;;;;;;5.72;4.07;;;;;;;2.80;67.04;102266.81;5086932;28;20052;-73
2022/03/02 01:54:14;;;;;;;8.68;5.20;;;;;;;2.76;67.99;102267.78;5103158;28;20036;-75
2022/03/02 01:56:41;;;;;;;8.93;5.45;;;;;;;2.65;69.32;102265.44;5089986;28;20039;-73
2022/03/02 01:59:08;;;;;;;6.53;4.22;;;;;;;2.62;68.64;102264.66;5095300;28;20044;-73
2022/03/02 02:01:36;;;;;;;8.77;4.57;;;;;;;2.59;68.65;102259.53;5083277;28;20048;-73
2022/03/02 02:04:05;;;;;;;9.75;5.20;;;;;;;2.56;70.00;102259.59;5076802;28;20129;-75
2022/03/02 02:06:32;;;;;;;6.70;3.17;;;;;;;2.58;69.10;102268.22;5075958;28;20047;-72
2022/03/02 02:08:59;;;;;;;11.70;5.32;;;;;;;2.58;69.20;102263.88;5069954;28;20047;-74
2022/03/02 02:11:26;;;;;;;10.15;5.68;;;;;;;2.54;70.35;102267.44;5067433;28;20036;-72
2022/03/02 02:13:53;;;;;;;13.07;4.60;;;;;;;2.57;68.64;102253.53;5077108;28;20062;-74
2022/03/02 02:16:21;;;;;;;12.95;5.07;;;;;;;2.55;69.68;102250.97;5074065;28;20048;-74
2022/03/02 02:18:50;;;;;;;7.00;3.80;;;;;;;2.58;69.79;102255.25;5074491;28;20044;-73
2022/03/02 02:21:19;;;;;;;10.00;4.47;;;;;;;2.57;69.77;102250.94;5073925;28;20046;-73
2022/03/02 02:23:46;;;;;;;9.07;5.18;;;;;;;2.57;69.99;102254.38;5078891;28;20060;-74
2022/03/02 02:26:13;;;;;;;9.55;4.55;;;;;;;2.52;70.26;102260.53;5075724;28;20044;-75
2022/03/02 02:28:40;;;;;;;8.38;4.63;;;;;;;2.54;69.57;102256.19;5077354;28;20052;-73
2022/03/02 02:31:07;;;;;;;10.98;4.78;;;;;;;2.56;70.55;102249.22;5055901;28;20537;-73
2022/03/02 02:33:34;;;;;;;7.28;5.25;;;;;;;2.54;70.04;102238.91;5079125;28;20121;-73
2022/03/02 02:36:01;;;;;;;9.32;4.55;;;;;;;2.52;69.86;102229.44;5074674;28;20055;-72
2022/03/02 02:38:29;;;;;;;5.68;4.07;;;;;;;2.52;71.17;102238.06;5072524;28;20047;-73
2022/03/02 02:40:55;;;;;;;8.23;5.28;;;;;;;2.46;70.32;102234.75;5073387;28;20040;-74
2022/03/02 02:43:24;;;;;;;7.40;4.13;;;;;;;2.43;70.41;102237.41;5069092;28;20105;-75
2022/03/02 02:45:51;;;;;;;6.90;3.30;;;;;;;2.41;71.34;102245.22;5072666;28;20060;-72
2022/03/02 02:48:18;;;;;;;12.18;6.25;;;;;;;2.49;69.67;102232.94;5070321;28;20039;-73
2022/03/02 02:50:45;;;;;;;8.98;4.80;;;;;;;2.52;70.14;102227.69;5076669;28;20379;-74
2022/03/02 02:53:12;;;;;;;11.27;4.95;;;;;;;2.57;70.46;102225.00;5073214;28;20040;-73
2022/03/02 02:55:42;;;;;;;10.13;5.45;;;;;;;2.52;70.14;102221.66;5072100;28;20262;-73
2022/03/02 02:58:09;;;;;;;9.02;4.10;;;;;;;2.42;70.77;102225.34;5069182;28;20040;-73
2022/03/02 03:00:38;;;;;;;8.52;5.63;;;;;;;2.43;70.28;102221.84;5057220;28;20052;-71
2022/03/02 03:03:05;;;;;;;14.73;5.00;;;;;;;2.38;70.62;102221.94;5072243;28;20068;-75
2022/03/02 03:05:33;;;;;;;9.57;4.70;;;;;;;2.35;70.17;102218.56;5074832;28;20046;-74
2022/03/02 03:08:01;;;;;;;8.88;5.22;;;;;;;2.37;70.62;102221.16;5074329;28;20105;-74
2022/03/02 03:10:28;;;;;;;6.85;3.28;;;;;;;2.34;68.40;102214.28;5078603;28;20052;-74
2022/03/02 03:12:56;;;;;;;8.50;4.07;;;;;;;2.35;69.59;102212.56;5081220;28;20032;-75
2022/03/02 03:15:24;;;;;;;7.60;3.90;;;;;;;2.37;70.05;102211.63;5075490;28;20085;-72
2022/03/02 03:17:51;;;;;;;19.35;3.13;;;;;;;2.21;70.79;102212.84;5080870;28;20093;-74
2022/03/02 03:20:19;;;;;;;11.80;5.03;;;;;;;2.20;69.66;102218.09;5074211;28;20051;-75
2022/03/02 03:22:46;;;;;;;6.18;3.38;;;;;;;2.12;71.19;102220.81;5075453;28;20572;-72
2022/03/02 03:25:14;;;;;;;7.40;4.15;;;;;;;2.05;71.62;102221.84;5074531;28;20044;-72
2022/03/02 03:27:42;;;;;;;7.13;3.67;;;;;;;2.09;71.05;102220.03;5075928;28;20126;-74
2022/03/02 03:30:12;;;;;;;6.38;3.85;;;;;;;2.08;71.11;102223.50;5072545;28;20066;-73
2022/03/02 03:32:39;;;;;;;7.88;5.10;;;;;;;2.06;71.47;102220.97;5080059;28;20052;-74
2022/03/02 03:35:08;;;;;;;15.98;5.32;;;;;;;2.05;71.83;102221.84;5068983;28;20522;-73
2022/03/02 03:37:35;;;;;;;5.72;3.55;;;;;;;2.07;71.72;102222.69;5079701;28;20047;-73
2022/03/02 03:40:03;;;;;;;8.02;3.50;;;;;;;2.10;71.15;102222.59;5085309;28;20487;-73
2022/03/02 03:42:29;;;;;;;7.70;3.80;;;;;;;2.11;71.22;102219.13;5073698;28;20068;-72
2022/03/02 03:44:56;;;;;;;5.13;3.30;;;;;;;2.12;71.41;102220.81;5075946;28;20039;-73
2022/03/02 03:47:24;;;;;;;6.97;3.88;;;;;;;2.15;71.01;102225.09;5079257;28;20097;-73
2022/03/02 03:49:50;;;;;;;14.38;6.43;;;;;;;2.22;70.00;102222.34;5070081;28;20048;-74
2022/03/02 03:52:17;;;;;;;4.63;2.83;;;;;;;2.15;71.06;102223.38;5077184;28;20032;-73
2022/03/02 03:54:44;;;;;;;4.15;3.30;;;;;;;2.25;69.70;102221.41;5078880;28;20040;-74
2022/03/02 03:57:11;;;;;;;5.47;2.80;;;;;;;2.31;69.33;102219.56;5072200;28;20071;-73
2022/03/02 03:59:37;;;;;;;7.35;3.78;;;;;;;2.21;70.24;102218.03;5079089;28;20040;-75
2022/03/02 04:02:04;;;;;;;9.00;4.90;;;;;;;2.16;70.33;102222.47;5073211;28;20055;-73
2022/03/02 04:04:32;;;;;;;7.53;4.32;;;;;;;2.18;69.48;102212.91;5076308;28;20067;-75
2022/03/02 04:06:59;;;;;;;5.85;3.30;;;;;;;2.22;68.35;102211.97;5077279;28;20047;-72
2022/03/02 04:09:26;;;;;;;4.80;2.63;;;;;;;2.31;67.16;102206.59;5061478;28;20090;-72
2022/03/02 04:11:53;;;;;;;5.30;3.30;;;;;;;2.17;69.64;102203.47;5072072;28;20584;-73
2022/03/02 04:14:20;;;;;;;8.20;4.47;;;;;;;2.08;69.79;102198.47;5061118;28;20136;-74
2022/03/02 04:16:47;;;;;;;14.43;4.30;;;;;;;2.00;70.20;102200.38;5079174;28;20051;-73
2022/03/02 04:19:13;;;;;;;6.18;3.92;;;;;;;1.94;71.09;102197.88;5075083;28;20042;-72
2022/03/02 04:21:43;;;;;;;9.68;3.38;;;;;;;1.89;71.04;102199.72;5077662;28;20097;-73
2022/03/02 04:24:09;;;;;;;8.88;3.67;;;;;;;1.90;71.49;102185.03;5071545;28;20059;-73
2022/03/02 04:26:36;;;;;;;6.90;3.55;;;;;;;1.81;71.50;102192.97;5078111;28;20089;-73
2022/03/02 04:29:03;;;;;;;8.20;4.43;;;;;;;1.75;71.30;102194.00;5075852;28;20040;-73
2022/03/02 04:31:30;;;;;;;17.00;3.78;;;;;;;1.72;72.81;102194.03;5090581;28;20028;-73
2022/03/02 04:33:58;;;;;;;7.55;4.32;;;;;;;1.67;73.04;102187.25;5087220;28;20109;-72
2022/03/02 04:36:25;;;;;;;10.68;5.47;;;;;;;1.68;72.89;102186.38;5077710;28;20075;-72
2022/03/02 04:38:54;;;;;;;9.10;3.60;;;;;;;1.63;72.18;102178.69;5077127;28;20114;-72
2022/03/02 04:41:21;;;;;;;6.93;3.67;;;;;;;1.69;71.39;102175.97;5073955;28;20072;-72
2022/03/02 04:43:47;;;;;;;6.25;3.33;;;;;;;1.63;71.95;102173.50;5075686;28;20032;-75
2022/03/02 04:46:14;;;;;;;4.85;3.67;;;;;;;1.67;71.91;102176.88;5075588;28;20127;-72
2022/03/02 04:48:41;;;;;;;12.35;3.33;;;;;;;1.61;72.60;102180.44;5068608;28;20718;-75
2022/03/02 04:51:08;;;;;;;8.05;4.63;;;;;;;1.60;72.77;102173.56;5076792;28;20156;-73
2022/03/02 04:53:34;;;;;;;9.00;4.20;;;;;;;1.57;72.63;102169.34;5079301;28;20063;-73
2022/03/02 04:56:03;;;;;;;5.53;3.58;;;;;;;1.58;72.34;102175.34;5075070;28;20168;-73
2022/03/02 04:58:29;;;;;;;4.50;3.50;;;;;;;1.55;72.23;102184.03;5080277;28;20044;-72
2022/03/02 05:00:56;;;;;;;6.10;3.85;;;;;;;1.58;71.84;102175.34;5075554;28;20038;-73
2022/03/02 05:03:23;;;;;;;7.70;3.88;;;;;;;1.57;72.49;102172.75;5075126;28;20048;-73
2022/03/02 05:05:49;;;;;;;7.13;3.80;;;;;;;1.56;73.09;102188.34;5073303;28;20140;-74
2022/03/02 05:08:16;;;;;;;4.60;3.17;;;;;;;1.54;73.14;102182.34;5074708;28;20075;-75
2022/03/02 05:10:43;;;;;;;8.00;4.15;;;;;;;1.54;73.40;102182.34;5062107;28;20129;-72
2022/03/02 05:13:12;;;;;;;7.32;2.67;;;;;;;1.57;73.03;102185.72;5058803;28;20048;-72
2022/03/02 05:15:38;;;;;;;11.32;3.83;;;;;;;1.62;72.94;102171.78;5073721;28;20044;-71
2022/03/02 05:18:05;;;;;;;6.68;3.75;;;;;;;1.65;73.05;102171.75;5076904;28;20048;-72
2022/03/02 05:20:31;;;;;;;9.80;4.95;;;;;;;1.64;73.67;102169.19;5080025;28;20692;-71
2022/03/02 05:22:58;;;;;;;5.75;3.28;;;;;;;1.65;72.21;102168.28;5075798;28;20101;-71
2022/03/02 05:25:25;;;;;;;3.92;2.67;;;;;;;1.62;72.66;102166.63;5086362;28;20052;-72
2022/03/02 05:27:51;;;;;;;7.57;4.00;;;;;;;1.60;72.50;102167.53;5078368;28;20724;-73
2022/03/02 05:30:20;;;;;;;6.40;4.07;;;;;;;1.56;73.15;102171.06;5079423;28;20056;-73
2022/03/02 05:32:47;;;;;;;5.22;3.78;;;;;;;1.54;73.18;102171.97;5077869;28;20037;-71
2022/03/02 05:35:14;;;;;;;5.10;3.25;;;;;;;1.51;73.00;102183.25;5080751;28;20081;-74
2022/03/02 05:37:42;;;;;;;11.10;3.60;;;;;;;1.46;73.11;102174.72;5078831;28;20052;-72
2022/03/02 05:40:11;;;;;;;6.80;4.10;;;;;;;1.46;72.16;102173.88;5075714;28;20056;-73
2022/03/02 05:42:38;;;;;;;5.68;4.22;;;;;;;1.41;73.39;102175.69;5072308;28;20071;-73
2022/03/02 05:45:06;;;;;;;7.40;4.25;;;;;;;1.33;73.47;102180.16;5075936;28;20059;-73
2022/03/02 05:47:34;;;;;;;9.55;4.05;;;;;;;1.26;73.89;102173.41;5070069;28;20524;-74
2022/03/02 05:50:01;;;;;;;8.85;4.07;;;;;;;1.20;74.15;102176.09;5075684;28;20118;-73
2022/03/02 05:52:28;;;;;;;10.85;4.03;;;;;;;1.12;74.61;102175.38;5077433;28;20048;-72
2022/03/02 05:54:54;;;;;;;9.05;3.40;;;;;;;1.03;75.33;102179.00;5076187;28;20048;-72
2022/03/02 05:57:21;;;;;;;7.85;3.63;;;;;;;0.99;75.17;102173.91;5069877;28;20051;-75
2022/03/02 05:59:48;;;;;;;7.57;5.30;;;;;;;0.97;75.14;102170.47;5077328;28;20036;-74
2022/03/02 06:02:14;;;;;;;8.85;4.82;;;;;;;0.94;74.66;102173.13;5076347;28;20040;-73
2022/03/02 06:04:42;;;;;;;8.02;3.95;;;;;;;0.92;75.04;102173.13;5072621;28;20052;-73
2022/03/02 06:07:09;;;;;;;7.35;3.85;;;;;;;0.90;74.18;102174.06;5071380;28;20046;-72
2022/03/02 06:09:36;;;;;;;8.57;4.45;;;;;;;0.91;73.53;102163.66;5074288;28;20162;-72
2022/03/02 06:12:04;;;;;;;9.40;3.20;;;;;;;0.91;73.58;102174.00;5072980;28;20048;-74
2022/03/02 06:14:31;;;;;;;10.27;4.68;;;;;;;0.91;72.63;102168.84;5058096;28;20117;-73
2022/03/02 06:16:58;;;;;;;7.88;4.53;;;;;;;0.94;72.22;102170.56;5078903;28;20097;-74
2022/03/02 06:19:26;;;;;;;8.40;3.92;;;;;;;0.91;72.09;102168.84;5070269;28;20032;-73
2022/03/02 06:21:55;;;;;;;4.50;3.17;;;;;;;0.91;72.82;102162.84;5071120;28;20059;-74
2022/03/02 06:24:22;;;;;;;4.10;3.35;;;;;;;0.94;72.82;102167.97;5070892;28;20040;-73
2022/03/02 06:26:49;;;;;;;5.90;3.67;;;;;;;1.01;72.88;102177.31;5057920;28;20595;-74
2022/03/02 06:29:16;;;;;;;5.35;3.65;;;;;;;1.07;72.49;102179.78;5073784;28;20082;-72
2022/03/02 06:31:43;;;;;;;8.05;3.88;;;;;;;1.11;72.50;102176.25;5076331;28;20054;-73
2022/03/02 06:34:09;;;;;;;6.65;3.75;;;;;;;1.12;72.98;102175.38;5058581;28;20060;-74
2022/03/02 06:36:36;;;;;;;6.57;4.30;;;;;;;1.21;72.63;102177.78;5074895;28;20044;-73
2022/03/02 06:39:04;;;;;;;8.32;3.53;;;;;;;1.29;72.31;102179.38;5076131;28;20036;-72
2022/03/02 06:41:40;;;;;;;7.13;4.40;;;;;;;1.39;72.85;102177.44;5075095;28;20066;-73
2022/03/02 06:44:18;;;;;;;7.75;3.97;;;;;;;1.46;72.42;102174.72;5063416;28;20083;-73
2022/03/02 06:47:01;;;;;;;6.65;4.18;;;;;;;1.56;72.27;102177.97;5074924;28;20051;-73
2022/03/02 06:49:37;;;;;;;5.93;3.25;;;;;;;1.66;72.37;102183.81;5081859;28;20044;-73
2022/03/02 06:52:06;;;;;;;5.75;3.30;;;;;;;1.77;72.92;102179.25;5051480;28;20104;-72
2022/03/02 06:54:34;;;;;;;5.82;3.75;;;;;;;1.90;72.41;102180.72;5077651;28;20059;-73
2022/03/02 06:57:03;;;;;;;6.25;3.08;;;;;;;2.03;72.04;102184.75;5072714;28;20075;-73
2022/03/02 06:59:31;;;;;;;7.90;3.95;;;;;;;2.15;71.80;102179.31;5080685;28;20447;-73
2022/03/02 07:02:01;;;;;;;11.20;3.58;;;;;;;2.26;72.16;102177.31;5078377;28;20129;-72
2022/03/02 07:04:28;;;;;;;5.85;4.25;;;;;;;2.44;71.36;102176.88;5072172;28;20051;-75
2022/03/02 07:06:56;;;;;;;6.47;3.80;;;;;;;2.60;69.97;102183.41;5078597;28;20132;-72
2022/03/02 07:09:24;;;;;;;10.18;5.00;;;;;;;2.73;69.03;102179.66;5078515;28;20033;-73
2022/03/02 07:11:52;;;;;;;8.30;4.32;;;;;;;2.81;69.21;102181.16;5090781;28;20044;-73
2022/03/02 07:14:19;;;;;;;10.77;4.57;;;;;;;2.96;68.70;102178.16;5086372;28;20044;-73
2022/03/02 07:16:46;;;;;;;4.53;3.33;;;;;;;3.12;69.15;102178.63;5061055;28;20039;-74
2022/03/02 07:19:13;;;;;;;10.30;3.58;;;;;;;3.55;66.39;102180.91;5075797;28;20662;-73
2022/03/02 07:21:41;;;;;;;4.43;3.05;;;;;;;4.10;62.72;102176.66;5078895;28;20127;-73
2022/03/02 07:24:13;;;;;;;7.85;4.30;;;;;;;4.25;63.44;102180.53;5076680;28;20055;-73
2022/03/02 07:26:47;;;;;;;10.27;5.40;;;;;;;4.43;62.15;102180.81;5079236;28;20048;-73
2022/03/02 07:29:15;;;;;;;6.43;4.10;;;;;;;4.66;62.57;102180.09;5058166;28;20127;-73
2022/03/02 07:31:43;;;;;;;7.57;4.18;;;;;;;4.92;61.31;102189.63;5062913;28;20047;-75
2022/03/02 07:34:12;;;;;;;7.95;4.60;;;;;;;5.31;60.09;102175.22;5081161;28;20050;-74
2022/03/02 07:36:41;;;;;;;8.93;4.57;;;;;;;6.22;56.23;102173.59;5063963;28;20084;-72
2022/03/02 07:39:08;;;;;;;7.43;4.47;;;;;;;7.01;54.03;102167.72;5085593;28;20064;-73
2022/03/02 07:41:35;;;;;;;5.68;4.15;;;;;;;8.07;51.04;102159.41;5080874;28;20135;-73
2022/03/02 07:44:02;;;;;;;6.18;3.85;;;;;;;9.60;47.64;102156.00;5076506;28;20040;-73
2022/03/02 07:46:30;;;;;;;13.75;4.60;;;;;;;11.08;42.22;102134.38;5069307;28;20052;-72
2022/03/02 07:48:57;;;;;;;11.05;4.40;;;;;;;11.60;38.41;102138.25;5076655;28;20068;-73
2022/03/02 07:51:24;;;;;;;7.22;4.75;;;;;;;12.79;39.72;102141.00;5081336;28;20044;-73
2022/03/02 07:53:52;;;;;;;6.13;3.88;;;;;;;14.41;35.30;102130.38;5077138;28;20108;-73
2022/03/02 07:56:20;;;;;;;13.95;5.38;;;;;;;14.87;32.91;102122.44;5079449;28;20067;-72
2022/03/02 07:58:47;;;;;;;15.35;5.78;;;;;;;13.98;34.65;102129.97;5077557;28;20059;-72
2022/03/02 08:01:17;;;;;;;11.65;5.50;;;;;;;13.17;35.17;102128.75;5077883;28;20097;-74
2022/03/02 08:03:45;;;;;;;12.93;5.07;;;;;;;12.12;36.69;102132.25;5072651;28;20140;-74
2022/03/02 08:06:13;;;;;;;10.75;5.90;;;;;;;11.47;37.08;102132.03;5081552;28;20051;-74
2022/03/02 08:08:40;;;;;;;11.35;4.63;;;;;;;11.20;38.46;102134.50;5077786;28;20049;-72
2022/03/02 08:11:07;;;;;;;6.88;3.70;;;;;;;11.84;38.20;102131.47;5057027;28;20044;-74
2022/03/02 08:13:36;;;;;;;9.45;4.30;;;;;;;12.06;36.87;102125.59;5078527;28;20097;-74
2022/03/02 08:16:03;;;;;;;10.60;5.53;;;;;;;13.61;33.90;102111.53;5059183;28;20040;-72
2022/03/02 08:18:29;;;;;;;10.82;4.55;;;;;;;14.05;32.35;102115.34;5079691;28;20043;-73
2022/03/02 08:20:58;;;;;;;10.13;5.13;;;;;;;13.63;34.05;102115.75;5076880;28;20054;-73
2022/03/02 08:23:29;;;;;;;10.68;4.65;;;;;;;13.82;34.56;102120.59;5081217;28;20036;-74
2022/03/02 08:25:56;;;;;;;11.70;5.63;;;;;;;14.63;30.83;102107.53;5075466;28;20596;-74
2022/03/02 08:28:23;;;;;;;11.00;5.40;;;;;;;14.85;30.30;102116.41;5080709;28;20048;-72
2022/03/02 08:30:51;;;;;;;8.10;5.07;;;;;;;13.85;31.83;102120.38;5074932;28;20131;-74
2022/03/02 08:33:25;;;;;;;9.27;4.85;;;;;;;14.28;32.60;102116.38;5078499;28;20048;-73
2022/03/02 08:35:52;;;;;;;11.00;5.78;;;;;;;14.35;29.65;102120.25;5075835;28;20040;-74
2022/03/02 08:38:20;;;;;;;11.55;5.38;;;;;;;13.93;31.98;102115.38;5078217;28;20160;-72
2022/03/02 08:40:47;;;;;;;11.05;5.82;;;;;;;14.98;29.71;102106.56;5076621;28;20057;-73
2022/03/02 08:43:15;;;;;;;14.82;5.55;;;;;;;15.03;30.09;102107.09;5077098;28;20040;-74
2022/03/02 08:45:44;;;;;;;11.35;5.15;;;;;;;16.42;27.77;102112.66;5073885;28;20052;-72
2022/03/02 08:48:12;;;;;;;10.82;5.22;;;;;;;17.18;26.48;102107.97;5077356;28;20044;-74
2022/03/02 08:50:39;;;;;;;16.48;6.35;;;;;;;16.41;27.10;102100.34;5074523;28;20044;-74
2022/03/02 08:53:06;;;;;;;9.07;4.68;;;;;;;17.09;27.11;102095.47;5076551;28;20123;-73
2022/03/02 08:55:34;;;;;;;12.02;5.32;;;;;;;17.21;26.60;102099.72;5078932;28;20036;-73
2022/03/02 08:58:01;;;;;;;9.05;4.90;;;;;;;16.97;25.94;102096.47;5074636;28;20047;-74
2022/03/02 09:00:28;;;;;;;10.02;4.85;;;;;;;16.33;26.46;102094.00;5079400;28;20515;-73
2022/03/02 09:02:55;;;;;;;14.55;4.70;;;;;;;15.89;26.62;102091.41;5074599;28;20346;-72
2022/03/02 09:05:23;;;;;;;9.45;4.70;;;;;;;17.74;26.51;102081.72;5078989;28;20137;-74
2022/03/02 09:07:49;;;;;;;9.55;4.82;;;;;;;18.51;24.89;102077.41;5058592;28;20044;-74
2022/03/02 09:10:17;;;;;;;11.32;4.97;;;;;;;17.73;24.26;102073.84;5076986;28;20126;-76
2022/03/02 09:12:45;;;;;;;10.73;5.78;;;;;;;17.00;26.71;102082.97;5069864;28;20045;-74
2022/03/02 09:15:12;;;;;;;9.15;5.07;;;;;;;16.60;25.97;102087.28;5059672;28;20051;-72
2022/03/02 09:17:39;;;;;;;14.30;4.82;;;;;;;16.12;26.86;102083.31;5056131;28;20052;-74
2022/03/02 09:20:08;;;;;;;9.52;5.15;;;;;;;15.35;27.44;102073.72;5079433;28;20040;-74
2022/03/02 09:22:37;;;;;;;9.32;4.55;;;;;;;15.55;27.39;102078.31;5078661;28;20483;-72
2022/03/02 09:25:06;;;;;;;9.80;4.70;;;;;;;14.39;29.67;102082.06;5077649;28;20051;-73
2022/03/02 09:27:33;;;;;;;11.18;4.97;;;;;;;15.25;28.41;102082.50;5085211;28;20044;-73
2022/03/02 09:30:04;;;;;;;17.50;5.93;;;;;;;15.12;28.59;102076.41;5076870;28;20044;-74
2022/03/02 09:32:32;;;;;;;13.55;5.45;;;;;;;15.60;28.56;102073.47;5060863;28;20044;-76
2022/03/02 09:34:59;;;;;;;8.40;5.05;;;;;;;15.82;27.53;102070.81;5076107;28;20411;-75
2022/03/02 09:37:27;;;;;;;10.40;5.63;;;;;;;15.84;28.62;102067.06;5079169;28;20520;-73
2022/03/02 09:39:54;;;;;;;7.68;4.50;;;;;;;14.73;30.15;102074.16;5073880;28;21353;-73
2022/03/02 09:42:26;;;;;;;8.52;4.65;;;;;;;13.64;29.15;102077.00;5080140;28;20593;-75
2022/03/02 09:45:00;;;;;;;8.60;4.70;;;;;;;13.84;29.80;102076.41;5076353;28;20036;-74
2022/03/02 09:47:37;;;;;;;11.93;5.78;;;;;;;14.06;30.37;102071.28;5059392;28;20044;-73
2022/03/02 09:50:06;;;;;;;15.35;5.47;;;;;;;13.92;33.06;102068.78;5095639;28;20059;-74
2022/03/02 09:52:34;;;;;;;12.45;3.97;;;;;;;13.56;31.05;102074.06;5094036;28;20044;-72
2022/03/02 09:55:01;;;;;;;8.82;4.82;;;;;;;13.15;32.08;102073.44;5072944;28;20063;-73
2022/03/02 09:57:28;;;;;;;10.65;5.28;;;;;;;11.66;34.09;102072.91;5077762;28;20322;-74
2022/03/02 09:59:55;;;;;;;7.30;4.13;;;;;;;10.70;36.87;102080.59;5073271;28;20496;-73
2022/03/02 10:02:36;;;;;;;14.95;4.82;;;;;;;10.94;38.02;102073.06;5075861;28;20125;-74
2022/03/02 10:05:05;;;;;;;11.32;5.50;;;;;;;11.13;36.90;102073.63;5068523;28;20039;-73
2022/03/02 10:07:35;;;;;;;12.90;5.53;;;;;;;11.09;36.09;102080.03;5074552;28;20040;-73
2022/03/02 10:10:07;;;;;;;10.38;5.53;;;;;;;10.85;37.69;102078.84;5073691;28;20040;-73
2022/03/02 10:12:33;;;;;;;20.20;5.35;;;;;;;11.31;37.14;102068.13;5074570;28;20042;-75
2022/03/02 10:15:00;;;;;;;12.57;5.50;;;;;;;11.60;35.97;102075.94;5075686;28;20089;-73
2022/03/02 10:17:33;;;;;;;7.45;4.43;;;;;;;11.92;34.17;102077.41;5075529;28;20044;-73
2022/03/02 10:20:04;;;;;;;10.10;4.80;;;;;;;11.98;33.31;102071.72;5076888;28;20044;-75
2022/03/02 10:22:58;;;;;;;10.82;4.53;;;;;;;11.86;32.86;102072.50;5070655;28;20048;-73
2022/03/02 10:25:32;;;;;;;12.00;4.28;;;;;;;11.88;32.64;102060.09;5070265;28;20067;-73
2022/03/02 10:28:01;;;;;;;15.93;4.18;;;;;;;12.28;32.00;102064.47;5073780;28;20134;-73
2022/03/02 10:30:32;;;;;;;9.48;4.55;;;;;;;12.33;31.38;102057.97;5074969;28;20040;-73
2022/03/02 10:33:21;;;;;;;10.52;5.45;;;;;;;12.36;32.85;102070.94;5075011;28;20039;-73
2022/03/02 10:35:52;;;;;;;10.07;5.22;;;;;;;12.30;32.56;102062.59;5074996;28;20148;-72
2022/03/02 10:38:28;;;;;;;9.35;4.80;;;;;;;12.58;33.30;102065.09;5072762;28;20141;-73
2022/03/02 10:40:59;;;;;;;8.90;4.38;;;;;;;12.95;33.12;102055.47;5066913;28;20035;-73
2022/03/02 10:43:36;;;;;;;13.50;5.57;;;;;;;13.52;31.74;102059.38;5071894;28;20050;-73
2022/03/02 10:46:04;;;;;;;12.05;4.95;;;;;;;13.68;31.73;102049.41;5063174;28;20053;-73
2022/03/02 10:48:38;;;;;;;12.18;6.05;;;;;;;13.91;30.35;102054.75;5072449;28;20043;-74
2022/03/02 10:51:06;;;;;;;9.32;4.28;;;;;;;13.59;30.53;102049.22;5076418;28;20040;-73
2022/03/02 10:53:37;;;;;;;10.32;5.45;;;;;;;13.41;30.93;102056.66;5074355;28;20048;-74
2022/03/02 10:56:05;;;;;;;11.23;4.90;;;;;;;12.98;30.23;102060.56;5076901;28;20055;-73
2022/03/02 10:58:32;;;;;;;10.13;5.35;;;;;;;13.04;32.24;102046.94;5073534;28;20039;-76
2022/03/02 11:01:00;;;;;;;6.55;3.40;;;;;;;13.06;30.60;102047.69;5075028;28;20044;-72
2022/03/02 11:03:29;;;;;;;12.38;5.88;;;;;;;13.29;30.41;102046.94;5075457;28;20044;-73
2022/03/02 11:06:01;;;;;;;14.95;6.00;;;;;;;12.79;32.05;102052.16;5076864;28;20044;-74
2022/03/02 11:08:29;;;;;;;12.80;5.75;;;;;;;12.69;32.24;102057.31;5070385;28;20119;-73
2022/03/02 11:10:56;;;;;;;12.48;5.18;;;;;;;12.96;32.16;102049.25;5070810;28;20052;-73
2022/03/02 11:13:24;;;;;;;13.65;6.07;;;;;;;13.05;32.33;102053.91;5055016;28;20124;-74
2022/03/02 11:15:52;;;;;;;9.10;4.85;;;;;;;13.91;30.69;102048.63;5058372;28;20139;-75
2022/03/02 11:18:20;;;;;;;19.80;5.32;;;;;;;14.38;30.13;102038.09;5070694;28;20063;-74
2022/03/02 11:21:00;;;;;;;11.73;5.50;;;;;;;14.53;29.20;102043.91;5072570;28;20384;-74
2022/03/02 11:23:27;;;;;;;11.20;5.82;;;;;;;13.87;30.81;102034.75;5075741;28;20048;-75
2022/03/02 11:25:56;;;;;;;11.57;5.53;;;;;;;13.61;30.89;102037.59;5075167;28;20040;-74
2022/03/02 11:28:24;;;;;;;10.88;5.82;;;;;;;13.53;30.60;102028.53;5074717;28;20052;-73
2022/03/02 11:30:52;;;;;;;11.75;4.85;;;;;;;13.96;30.70;102025.34;5057531;28;20052;-75